CCA984 KLAX-ZBAA
Flight info
| Callsign | CCA984 |
|---|---|
| Flight time | N/A |
| Altitude | 32100 |
| Route | SUMMR2 MCKEY DCT LIBBO DCT BRINY DCT BOARS DCT AMAKR DCT LINUZ DCT 43N130W 46N140W 49N150W 53N160W 54N170W 54N180E DCT NIKLL R220 NODAN R217 ASTER Y514 SDE Y512 GTC Y142 SAMON Y14 SUGNO Y16 SAPRA Y685 SEL Y697 AGAVO/K0839S1040 A591 IKEKA W4 HCH W200 DOVIV W55 DUMAP DUMAP9Z |
| Aircraft | B748/H-SDE3FGHIM1M2RWXY/LB1 |
Departure
| Time | N/A |
|---|---|
| Airport | Los Angeles International Airport (KLAX) |
Arrival
| Time | 2026-05-03 23:43 |
|---|---|
| Airport | Beijing Capital International Airport (ZBAA) |
| Time | Latitude | Longitude | Altitude | Speed | Heading |
|---|---|---|---|---|---|
| 2026-05-03 23:06 | 38.23639 | 119.14594 | 24556 ft | 456 kts | 292° |
| 2026-05-03 23:07 | 38.24871 | 119.10884 | 24180 ft | 453 kts | 293° |
| 2026-05-03 23:07 | 38.26094 | 119.07203 | 23805 ft | 451 kts | 292° |
| 2026-05-03 23:07 | 38.27291 | 119.03522 | 23429 ft | 448 kts | 292° |
| 2026-05-03 23:07 | 38.28469 | 118.99858 | 23053 ft | 446 kts | 292° |
| 2026-05-03 23:08 | 38.29636 | 118.96210 | 22678 ft | 444 kts | 292° |
| 2026-05-03 23:08 | 38.30791 | 118.92591 | 22303 ft | 441 kts | 292° |
| 2026-05-03 23:08 | 38.31942 | 118.88978 | 21927 ft | 439 kts | 292° |
| 2026-05-03 23:08 | 38.33086 | 118.85387 | 21551 ft | 436 kts | 292° |
| 2026-05-03 23:09 | 38.34221 | 118.81818 | 21176 ft | 434 kts | 292° |
| 2026-05-03 23:09 | 38.35353 | 118.78269 | 20800 ft | 431 kts | 292° |
| 2026-05-03 23:09 | 38.36475 | 118.74738 | 20424 ft | 429 kts | 292° |
| 2026-05-03 23:09 | 38.37608 | 118.71236 | 20049 ft | 427 kts | 292° |
| 2026-05-03 23:10 | 38.38728 | 118.67739 | 19673 ft | 424 kts | 292° |
| 2026-05-03 23:10 | 38.39460 | 118.65434 | 19424 ft | 423 kts | 292° |
| 2026-05-03 23:10 | 38.40925 | 118.60796 | 18921 ft | 420 kts | 292° |
| 2026-05-03 23:10 | 38.42008 | 118.57356 | 18546 ft | 417 kts | 292° |
| 2026-05-03 23:11 | 38.43084 | 118.53932 | 18170 ft | 415 kts | 292° |
| 2026-05-03 23:11 | 38.44141 | 118.50565 | 17799 ft | 413 kts | 292° |
| 2026-05-03 23:11 | 38.45204 | 118.47180 | 17424 ft | 410 kts | 292° |
| 2026-05-03 23:11 | 38.45919 | 118.44903 | 17170 ft | 409 kts | 292° |
| 2026-05-03 23:12 | 38.46974 | 118.41545 | 16795 ft | 407 kts | 291° |
| 2026-05-03 23:12 | 38.48028 | 118.38210 | 16419 ft | 404 kts | 292° |
| 2026-05-03 23:12 | 38.49098 | 118.34890 | 16042 ft | 402 kts | 292° |
| 2026-05-03 23:12 | 38.50144 | 118.31593 | 15667 ft | 400 kts | 292° |
| 2026-05-03 23:13 | 38.51177 | 118.28310 | 15292 ft | 398 kts | 292° |
| 2026-05-03 23:13 | 38.52201 | 118.25042 | 14916 ft | 396 kts | 291° |
| 2026-05-03 23:13 | 38.53218 | 118.21784 | 14540 ft | 393 kts | 291° |
| 2026-05-03 23:13 | 38.54227 | 118.18550 | 14165 ft | 391 kts | 291° |
| 2026-05-03 23:14 | 38.55230 | 118.15331 | 13790 ft | 389 kts | 291° |
| 2026-05-03 23:14 | 38.56229 | 118.12122 | 13413 ft | 387 kts | 291° |
| 2026-05-03 23:14 | 38.57220 | 118.08940 | 13038 ft | 385 kts | 291° |
| 2026-05-03 23:14 | 38.58210 | 118.05766 | 12662 ft | 383 kts | 291° |
| 2026-05-03 23:15 | 38.59176 | 118.02657 | 12292 ft | 381 kts | 291° |
| 2026-05-03 23:15 | 38.60204 | 117.99543 | 11916 ft | 379 kts | 294° |
| 2026-05-03 23:15 | 38.61290 | 117.96489 | 11561 ft | 377 kts | 296° |
| 2026-05-03 23:15 | 38.62709 | 117.93698 | 11206 ft | 374 kts | 309° |
| 2026-05-03 23:16 | 38.64564 | 117.91410 | 10865 ft | 367 kts | 319° |
| 2026-05-03 23:16 | 38.66486 | 117.89294 | 10514 ft | 361 kts | 319° |
| 2026-05-03 23:16 | 38.68396 | 117.87236 | 10163 ft | 356 kts | 320° |
| 2026-05-03 23:16 | 38.70273 | 117.85213 | 9813 ft | 351 kts | 320° |
| 2026-05-03 23:17 | 38.72113 | 117.83226 | 9464 ft | 346 kts | 320° |
| 2026-05-03 23:17 | 38.73941 | 117.81250 | 9113 ft | 341 kts | 320° |
| 2026-05-03 23:17 | 38.75741 | 117.79299 | 8762 ft | 337 kts | 320° |
| 2026-05-03 23:17 | 38.77520 | 117.77369 | 8411 ft | 333 kts | 320° |
| 2026-05-03 23:18 | 38.79277 | 117.75461 | 8061 ft | 330 kts | 320° |
| 2026-05-03 23:18 | 38.81014 | 117.73572 | 7711 ft | 326 kts | 320° |
| 2026-05-03 23:18 | 38.82736 | 117.71700 | 7360 ft | 323 kts | 320° |
| 2026-05-03 23:18 | 38.84440 | 117.69843 | 7009 ft | 320 kts | 320° |
| 2026-05-03 23:19 | 38.86130 | 117.68002 | 6658 ft | 317 kts | 320° |
| 2026-05-03 23:19 | 38.87802 | 117.66179 | 6307 ft | 314 kts | 320° |
| 2026-05-03 23:19 | 38.89461 | 117.64369 | 5957 ft | 312 kts | 320° |
| 2026-05-03 23:19 | 38.91108 | 117.62570 | 5606 ft | 310 kts | 320° |
| 2026-05-03 23:20 | 38.92741 | 117.60786 | 5255 ft | 307 kts | 320° |
| 2026-05-03 23:20 | 38.94363 | 117.59012 | 4904 ft | 305 kts | 319° |
| 2026-05-03 23:20 | 38.95978 | 117.57245 | 4553 ft | 303 kts | 319° |
| 2026-05-03 23:20 | 38.97577 | 117.55494 | 4203 ft | 302 kts | 319° |
| 2026-05-03 23:21 | 38.99168 | 117.53752 | 3852 ft | 300 kts | 319° |
| 2026-05-03 23:21 | 39.00750 | 117.52017 | 3502 ft | 298 kts | 319° |
| 2026-05-03 23:21 | 39.02325 | 117.50290 | 3151 ft | 297 kts | 319° |
| 2026-05-03 23:21 | 39.03890 | 117.48572 | 2801 ft | 295 kts | 319° |
| 2026-05-03 23:22 | 39.07000 | 117.45156 | 2128 ft | 291 kts | 319° |
| 2026-05-03 23:22 | 39.08521 | 117.43484 | 2071 ft | 289 kts | 319° |
| 2026-05-03 23:22 | 39.10043 | 117.41810 | 2011 ft | 287 kts | 319° |
| 2026-05-03 23:23 | 39.11581 | 117.40117 | 2005 ft | 288 kts | 319° |
| 2026-05-03 23:23 | 39.13068 | 117.38479 | 2002 ft | 280 kts | 319° |
| 2026-05-03 23:23 | 39.14513 | 117.36887 | 1998 ft | 266 kts | 319° |
| 2026-05-03 23:23 | 39.15879 | 117.35380 | 1996 ft | 252 kts | 319° |
| 2026-05-03 23:24 | 39.17194 | 117.33930 | 2001 ft | 246 kts | 319° |
| 2026-05-03 23:24 | 39.18483 | 117.32507 | 2006 ft | 245 kts | 319° |
| 2026-05-03 23:24 | 39.19784 | 117.31071 | 2007 ft | 247 kts | 319° |
| 2026-05-03 23:24 | 39.21088 | 117.29629 | 2020 ft | 246 kts | 319° |
| 2026-05-03 23:25 | 39.22391 | 117.28189 | 1996 ft | 247 kts | 319° |
| 2026-05-03 23:25 | 39.23691 | 117.26751 | 2004 ft | 246 kts | 319° |
| 2026-05-03 23:25 | 39.24992 | 117.25312 | 2006 ft | 246 kts | 319° |
| 2026-05-03 23:25 | 39.26289 | 117.23876 | 2006 ft | 246 kts | 319° |
| 2026-05-03 23:26 | 39.27591 | 117.22433 | 2006 ft | 247 kts | 319° |
| 2026-05-03 23:26 | 39.28895 | 117.20989 | 2006 ft | 247 kts | 319° |
| 2026-05-03 23:26 | 39.30198 | 117.19544 | 2006 ft | 247 kts | 319° |
| 2026-05-03 23:26 | 39.31501 | 117.18098 | 2006 ft | 247 kts | 319° |
| 2026-05-03 23:27 | 39.32802 | 117.16654 | 2006 ft | 247 kts | 319° |
| 2026-05-03 23:27 | 39.34106 | 117.15205 | 2006 ft | 247 kts | 319° |
| 2026-05-03 23:27 | 39.35405 | 117.13762 | 2006 ft | 247 kts | 319° |
| 2026-05-03 23:27 | 39.36710 | 117.12311 | 2006 ft | 247 kts | 319° |
| 2026-05-03 23:28 | 39.38012 | 117.10863 | 2006 ft | 247 kts | 319° |
| 2026-05-03 23:28 | 39.39310 | 117.09418 | 2006 ft | 247 kts | 319° |
| 2026-05-03 23:28 | 39.40612 | 117.07969 | 2006 ft | 247 kts | 319° |
| 2026-05-03 23:28 | 39.41913 | 117.06520 | 2006 ft | 247 kts | 319° |
| 2026-05-03 23:29 | 39.43213 | 117.05071 | 2006 ft | 247 kts | 319° |
| 2026-05-03 23:29 | 39.44513 | 117.03621 | 2006 ft | 247 kts | 319° |
| 2026-05-03 23:29 | 39.45817 | 117.02167 | 2006 ft | 247 kts | 319° |
| 2026-05-03 23:29 | 39.47117 | 117.00715 | 2006 ft | 247 kts | 319° |
| 2026-05-03 23:30 | 39.48417 | 116.99263 | 2006 ft | 247 kts | 319° |
| 2026-05-03 23:30 | 39.49700 | 116.97830 | 2006 ft | 247 kts | 319° |
| 2026-05-03 23:30 | 39.51016 | 116.96359 | 2006 ft | 247 kts | 319° |
| 2026-05-03 23:30 | 39.52298 | 116.94924 | 2006 ft | 247 kts | 319° |
| 2026-05-03 23:31 | 39.53599 | 116.93475 | 2006 ft | 247 kts | 319° |
| 2026-05-03 23:31 | 39.54904 | 116.92030 | 2006 ft | 247 kts | 319° |
| 2026-05-03 23:31 | 39.56210 | 116.90576 | 2006 ft | 247 kts | 319° |
| 2026-05-03 23:31 | 39.57510 | 116.89123 | 2006 ft | 247 kts | 319° |
| 2026-05-03 23:32 | 39.58808 | 116.87668 | 2006 ft | 247 kts | 319° |
| 2026-05-03 23:32 | 39.60106 | 116.86211 | 2006 ft | 247 kts | 319° |
| 2026-05-03 23:32 | 39.61404 | 116.84751 | 2006 ft | 247 kts | 319° |
| 2026-05-03 23:32 | 39.62698 | 116.83293 | 2006 ft | 247 kts | 319° |
| 2026-05-03 23:33 | 39.63996 | 116.81829 | 2006 ft | 247 kts | 319° |
| 2026-05-03 23:33 | 39.65292 | 116.80367 | 2006 ft | 247 kts | 319° |
| 2026-05-03 23:33 | 39.66585 | 116.78907 | 2006 ft | 247 kts | 319° |
| 2026-05-03 23:33 | 39.67881 | 116.77444 | 2006 ft | 247 kts | 319° |
| 2026-05-03 23:34 | 39.69179 | 116.75978 | 2006 ft | 247 kts | 319° |
| 2026-05-03 23:34 | 39.70472 | 116.74515 | 2006 ft | 247 kts | 319° |
| 2026-05-03 23:34 | 39.71736 | 116.73086 | 1995 ft | 232 kts | 319° |
| 2026-05-03 23:34 | 39.72896 | 116.71775 | 1993 ft | 211 kts | 319° |
| 2026-05-03 23:35 | 39.73973 | 116.70556 | 2014 ft | 202 kts | 319° |
| 2026-05-03 23:35 | 39.75033 | 116.69358 | 2016 ft | 202 kts | 319° |
| 2026-05-03 23:35 | 39.76083 | 116.68170 | 1995 ft | 192 kts | 319° |
| 2026-05-03 23:35 | 39.77022 | 116.67108 | 1905 ft | 169 kts | 319° |
| 2026-05-03 23:36 | 39.78001 | 116.66328 | 1994 ft | 162 kts | 337° |
| 2026-05-03 23:36 | 39.79073 | 116.65950 | 2033 ft | 158 kts | 346° |
| 2026-05-03 23:36 | 39.80151 | 116.65728 | 2033 ft | 156 kts | 351° |
| 2026-05-03 23:36 | 39.81227 | 116.65568 | 1999 ft | 155 kts | 352° |
| 2026-05-03 23:37 | 39.82298 | 116.65418 | 1994 ft | 154 kts | 353° |
| 2026-05-03 23:37 | 39.83368 | 116.65262 | 2015 ft | 155 kts | 353° |
| 2026-05-03 23:37 | 39.84440 | 116.65102 | 2015 ft | 155 kts | 353° |
| 2026-05-03 23:37 | 39.85515 | 116.64939 | 2003 ft | 155 kts | 353° |
| 2026-05-03 23:38 | 39.86585 | 116.64775 | 2002 ft | 155 kts | 353° |
| 2026-05-03 23:38 | 39.87642 | 116.64612 | 2008 ft | 155 kts | 353° |
| 2026-05-03 23:38 | 39.88727 | 116.64444 | 2007 ft | 155 kts | 353° |
| 2026-05-03 23:38 | 39.89786 | 116.64279 | 2005 ft | 155 kts | 353° |
| 2026-05-03 23:39 | 39.90872 | 116.64110 | 2006 ft | 155 kts | 353° |
| 2026-05-03 23:39 | 39.91929 | 116.63946 | 2006 ft | 155 kts | 353° |
| 2026-05-03 23:39 | 39.92999 | 116.63780 | 2006 ft | 155 kts | 353° |
| 2026-05-03 23:39 | 39.94071 | 116.63613 | 2006 ft | 155 kts | 353° |
| 2026-05-03 23:40 | 39.95142 | 116.63446 | 2006 ft | 155 kts | 353° |
| 2026-05-03 23:40 | 39.96228 | 116.63277 | 2005 ft | 155 kts | 353° |
| 2026-05-03 23:40 | 39.97300 | 116.63109 | 1827 ft | 156 kts | 353° |
| 2026-05-03 23:40 | 39.98370 | 116.62942 | 1594 ft | 154 kts | 353° |
| 2026-05-03 23:41 | 39.99419 | 116.62779 | 1392 ft | 154 kts | 353° |
| 2026-05-03 23:41 | 40.00479 | 116.62613 | 1187 ft | 153 kts | 353° |
| 2026-05-03 23:41 | 40.01537 | 116.62448 | 983 ft | 153 kts | 353° |
| 2026-05-03 23:41 | 40.02591 | 116.62284 | 780 ft | 152 kts | 353° |
| 2026-05-03 23:42 | 40.03642 | 116.62120 | 578 ft | 152 kts | 353° |
| 2026-05-03 23:42 | 40.04688 | 116.61955 | 400 ft | 151 kts | 353° |
| 2026-05-03 23:42 | 40.05734 | 116.61786 | 231 ft | 151 kts | 353° |
| 2026-05-03 23:42 | 40.06745 | 116.61636 | 131 ft | 134 kts | 353° |
| 2026-05-03 23:43 | 40.07425 | 116.61525 | 128 ft | 54 kts | 351° |
| 2026-05-03 23:43 | 40.07765 | 116.61470 | 128 ft | 32 kts | 340° |
| 2026-05-03 23:43 | 40.07921 | 116.61340 | 128 ft | 10 kts | 323° |
| 2026-05-03 23:43 | 40.07962 | 116.61283 | 128 ft | 9 kts | 281° |
| 2026-05-03 23:44 | 40.07933 | 116.61223 | 128 ft | 8 kts | 200° |
| 2026-05-03 23:44 | 40.07877 | 116.61222 | 128 ft | 8 kts | 176° |
| 2026-05-03 23:44 | 40.07823 | 116.61226 | 128 ft | 8 kts | 176° |
| 2026-05-03 23:44 | 40.07772 | 116.61234 | 128 ft | 7 kts | 172° |
| 2026-05-03 23:45 | 40.07723 | 116.61243 | 128 ft | 7 kts | 172° |
| 2026-05-03 23:45 | 40.07666 | 116.61254 | 128 ft | 9 kts | 172° |
| 2026-05-03 23:45 | 40.07607 | 116.61264 | 128 ft | 8 kts | 173° |
| 2026-05-03 23:45 | 40.07550 | 116.61273 | 128 ft | 8 kts | 173° |
| 2026-05-03 23:46 | 40.07508 | 116.61280 | 128 ft | 3 kts | 175° |
| 2026-05-03 23:46 | 40.07489 | 116.61271 | 128 ft | 3 kts | 218° |
| 2026-05-03 23:46 | 40.07471 | 116.61239 | 128 ft | 7 kts | 242° |
| 2026-05-03 23:46 | 40.07457 | 116.61161 | 128 ft | 11 kts | 263° |
| 2026-05-03 23:47 | 40.07449 | 116.61065 | 128 ft | 10 kts | 263° |
| 2026-05-03 23:47 | 40.07440 | 116.60972 | 128 ft | 10 kts | 263° |
| 2026-05-03 23:47 | 40.07409 | 116.60918 | 128 ft | 5 kts | 217° |
| 2026-05-03 23:47 | 40.07390 | 116.60885 | 128 ft | 4 kts | 242° |
| 2026-05-03 23:48 | 40.07382 | 116.60848 | 128 ft | 4 kts | 262° |
| 2026-05-03 23:48 | 40.07378 | 116.60810 | 128 ft | 4 kts | 263° |
| 2026-05-03 23:48 | 40.07376 | 116.60781 | 128 ft | 0 kts | 263° |